createdAt,value
2023-01-29T00:01:54.084Z,24.15
2023-01-29T00:04:20.867Z,24.85
2023-01-29T00:06:47.469Z,23.58
2023-01-29T00:09:14.206Z,21.92
2023-01-29T00:11:41.065Z,24.67
2023-01-29T00:14:07.983Z,21.98
2023-01-29T00:16:34.526Z,22.77
2023-01-29T00:19:02.438Z,26.35
2023-01-29T00:21:31.101Z,24.05
2023-01-29T00:23:58.325Z,26.02
2023-01-29T00:26:25.008Z,25.25
2023-01-29T00:28:51.627Z,27.00
2023-01-29T00:31:21.195Z,21.88
2023-01-29T00:33:48.319Z,24.08
2023-01-29T00:36:17.589Z,23.20
2023-01-29T00:38:44.379Z,21.95
2023-01-29T00:41:32.678Z,23.17
2023-01-29T00:44:18.973Z,22.48
2023-01-29T00:46:46.315Z,23.65
2023-01-29T00:49:12.945Z,25.30
2023-01-29T00:51:39.890Z,24.92
2023-01-29T00:54:09.750Z,25.30
2023-01-29T00:56:37.206Z,23.10
2023-01-29T00:59:04.517Z,24.08
2023-01-29T01:01:49.809Z,25.15
2023-01-29T01:04:16.447Z,20.42
2023-01-29T01:06:43.724Z,23.95
2023-01-29T01:09:29.761Z,24.13
2023-01-29T01:11:56.417Z,22.83
2023-01-29T01:14:23.081Z,22.52
2023-01-29T01:16:50.170Z,22.48
2023-01-29T01:19:16.974Z,24.33
2023-01-29T01:21:45.574Z,21.67
2023-01-29T01:24:12.964Z,23.55
2023-01-29T01:26:39.897Z,22.13
2023-01-29T01:29:06.980Z,22.35
2023-01-29T01:31:33.757Z,22.83
2023-01-29T01:34:00.353Z,24.00
2023-01-29T01:36:26.876Z,24.50
2023-01-29T01:38:54.363Z,22.92
2023-01-29T01:41:23.323Z,22.48
2023-01-29T01:43:49.866Z,24.58
2023-01-29T01:46:17.128Z,20.60
2023-01-29T01:48:45.969Z,22.90
2023-01-29T01:51:15.660Z,24.35
2023-01-29T01:53:50.224Z,22.10
2023-01-29T01:56:26.578Z,21.42
2023-01-29T01:58:56.951Z,22.60
2023-01-29T02:01:28.119Z,19.70
2023-01-29T02:04:23.413Z,24.48
2023-01-29T02:07:11.074Z,24.38
2023-01-29T02:09:46.492Z,21.33
2023-01-29T02:12:16.121Z,20.98
2023-01-29T02:14:44.177Z,22.38
2023-01-29T02:17:14.335Z,26.95
2023-01-29T02:20:05.665Z,25.08
2023-01-29T02:22:35.471Z,24.65
2023-01-29T02:25:26.923Z,21.35
2023-01-29T02:28:14.154Z,23.15
2023-01-29T02:30:56.377Z,24.90
2023-01-29T02:33:48.149Z,21.05
2023-01-29T02:36:40.840Z,22.98
2023-01-29T02:39:23.821Z,21.65
2023-01-29T02:42:11.716Z,22.17
2023-01-29T02:44:44.018Z,22.75
2023-01-29T02:47:38.219Z,21.95
2023-01-29T02:50:29.758Z,22.75
2023-01-29T02:53:11.149Z,26.50
2023-01-29T02:55:52.910Z,23.50
2023-01-29T02:58:28.123Z,22.90
2023-01-29T03:00:59.249Z,24.73
2023-01-29T03:06:22.535Z,23.48
2023-01-29T03:09:05.180Z,25.95
2023-01-29T03:11:42.511Z,23.63
2023-01-29T03:14:18.202Z,24.00
2023-01-29T03:16:51.559Z,26.48
2023-01-29T03:19:26.214Z,29.35
2023-01-29T03:22:01.106Z,24.98
2023-01-29T03:25:09.673Z,24.58
2023-01-29T03:28:08.096Z,27.27
2023-01-29T03:30:57.311Z,30.55
2023-01-29T03:33:26.643Z,25.55
2023-01-29T03:36:02.581Z,26.27
2023-01-29T03:38:32.174Z,28.50
2023-01-29T03:41:23.026Z,25.98
2023-01-29T03:44:34.591Z,25.70
2023-01-29T03:47:29.204Z,25.30
2023-01-29T03:50:17.578Z,26.73
2023-01-29T03:52:53.607Z,26.40
2023-01-29T03:55:49.540Z,26.42
2023-01-29T03:58:41.162Z,28.10
2023-01-29T04:01:13.456Z,26.63
2023-01-29T04:03:43.748Z,29.33
2023-01-29T04:06:15.123Z,28.23
2023-01-29T04:09:06.415Z,26.60
2023-01-29T04:11:37.325Z,26.65
2023-01-29T04:14:04.602Z,28.08
2023-01-29T04:16:39.950Z,24.85
2023-01-29T04:19:06.998Z,28.10
2023-01-29T04:21:37.627Z,29.92
2023-01-29T04:24:06.769Z,24.00
2023-01-29T04:26:52.135Z,27.05
2023-01-29T04:29:38.539Z,28.70
2023-01-29T04:32:08.227Z,28.38
2023-01-29T04:34:58.995Z,28.10
2023-01-29T04:37:59.601Z,30.67
2023-01-29T04:40:39.363Z,29.17
2023-01-29T04:43:29.193Z,26.88
2023-01-29T04:46:07.341Z,27.95
2023-01-29T04:48:36.804Z,25.58
2023-01-29T04:51:21.125Z,28.17
2023-01-29T04:53:57.237Z,24.33
2023-01-29T04:56:33.296Z,26.63
2023-01-29T04:59:07.568Z,28.25
2023-01-29T05:01:36.032Z,27.90
2023-01-29T05:04:07.454Z,28.40
2023-01-29T05:06:35.968Z,25.33
2023-01-29T05:09:03.479Z,28.58
2023-01-29T05:11:32.833Z,29.45
2023-01-29T05:14:02.363Z,30.98
2023-01-29T05:16:42.018Z,24.50
2023-01-29T05:19:13.608Z,30.17
2023-01-29T05:21:43.776Z,26.88
2023-01-29T05:24:19.634Z,26.92
2023-01-29T05:27:07.451Z,25.63
2023-01-29T05:29:34.280Z,27.27
2023-01-29T05:32:01.138Z,29.30
2023-01-29T05:34:27.693Z,28.77
2023-01-29T05:36:54.298Z,30.67
2023-01-29T05:39:20.913Z,28.40
2023-01-29T05:41:47.802Z,26.15
2023-01-29T05:44:14.300Z,29.25
2023-01-29T05:46:40.965Z,29.13
2023-01-29T05:49:07.652Z,27.67
2023-01-29T05:51:34.394Z,28.58
2023-01-29T05:54:01.918Z,25.80
2023-01-29T05:56:28.564Z,26.33
2023-01-29T05:58:55.741Z,28.95
2023-01-29T06:01:25.154Z,27.70
2023-01-29T06:03:52.109Z,24.88
2023-01-29T06:06:18.990Z,27.13
2023-01-29T06:08:45.729Z,25.48
2023-01-29T06:11:14.202Z,29.27
2023-01-29T06:13:41.078Z,28.70
2023-01-29T06:16:08.922Z,27.63
2023-01-29T06:18:39.879Z,27.77
2023-01-29T06:21:10.376Z,28.00
2023-01-29T06:23:37.355Z,27.45
2023-01-29T06:26:09.105Z,26.08
2023-01-29T06:28:35.708Z,33.05
2023-01-29T06:31:23.756Z,27.92
2023-01-29T06:33:50.973Z,26.95
2023-01-29T06:36:17.702Z,24.85
2023-01-29T06:38:44.288Z,26.90
2023-01-29T06:41:13.048Z,27.13
2023-01-29T06:43:40.078Z,26.67
2023-01-29T06:46:08.174Z,25.00
2023-01-29T06:48:35.284Z,25.52
2023-01-29T06:51:06.784Z,23.70
2023-01-29T06:53:34.747Z,28.15
2023-01-29T06:56:01.252Z,26.25
2023-01-29T06:58:27.772Z,27.42
2023-01-29T07:00:54.432Z,26.77
2023-01-29T07:03:21.236Z,23.95
2023-01-29T07:05:53.058Z,25.83
2023-01-29T07:08:22.627Z,25.52
2023-01-29T07:10:52.974Z,25.15
2023-01-29T07:13:19.502Z,26.95
2023-01-29T07:15:46.317Z,25.95
2023-01-29T07:18:12.795Z,23.48
2023-01-29T07:20:40.758Z,24.23
2023-01-29T07:23:10.965Z,29.67
2023-01-29T07:25:37.777Z,26.13
2023-01-29T07:28:05.095Z,28.30
2023-01-29T07:30:32.010Z,25.63
2023-01-29T07:33:16.728Z,28.00
2023-01-29T07:35:43.765Z,27.67
2023-01-29T07:38:14.002Z,25.00
2023-01-29T07:40:40.823Z,27.05
2023-01-29T07:43:08.049Z,24.15
2023-01-29T07:45:39.759Z,24.95
2023-01-29T07:48:09.753Z,23.10
2023-01-29T07:50:36.589Z,23.55
2023-01-29T07:53:03.761Z,25.52
2023-01-29T07:55:30.967Z,24.90
2023-01-29T07:57:57.898Z,23.75
2023-01-29T08:00:25.212Z,25.70
2023-01-29T08:02:51.921Z,23.75
2023-01-29T08:05:19.066Z,26.27
2023-01-29T08:07:51.487Z,23.45
2023-01-29T08:10:24.822Z,23.45
2023-01-29T08:12:59.328Z,22.25
2023-01-29T08:15:28.056Z,25.60
2023-01-29T08:17:58.085Z,26.23
2023-01-29T08:20:25.784Z,26.13
2023-01-29T08:23:00.234Z,25.20
2023-01-29T08:25:27.386Z,24.77
2023-01-29T08:27:54.220Z,21.83
2023-01-29T08:30:20.850Z,24.65
2023-01-29T08:32:47.435Z,23.02
2023-01-29T08:35:13.979Z,22.67
2023-01-29T08:37:40.548Z,22.63
2023-01-29T08:40:09.526Z,23.13
2023-01-29T08:42:36.436Z,26.85
2023-01-29T08:45:05.013Z,28.23
2023-01-29T08:47:31.554Z,23.23
2023-01-29T08:49:58.048Z,24.40
2023-01-29T08:52:24.915Z,22.73
2023-01-29T08:54:51.453Z,25.10
2023-01-29T08:57:18.054Z,25.05
2023-01-29T08:59:44.535Z,21.25
2023-01-29T09:02:11.961Z,22.95
2023-01-29T09:04:38.587Z,26.20
2023-01-29T09:07:05.196Z,23.45
2023-01-29T09:09:31.798Z,23.90
2023-01-29T09:11:58.664Z,23.45
2023-01-29T09:14:25.492Z,23.15
2023-01-29T09:16:52.156Z,24.40
2023-01-29T09:19:18.726Z,26.42
2023-01-29T09:21:45.264Z,23.23
2023-01-29T09:24:11.937Z,26.77
2023-01-29T09:26:40.203Z,22.52
2023-01-29T09:29:07.076Z,24.88
2023-01-29T09:31:33.722Z,24.98
2023-01-29T09:34:00.381Z,24.48
2023-01-29T09:36:26.987Z,23.33
2023-01-29T09:38:53.569Z,27.23
2023-01-29T09:41:51.684Z,23.02
2023-01-29T09:44:47.622Z,24.25
2023-01-29T09:47:17.261Z,24.80
2023-01-29T09:49:48.388Z,26.20
2023-01-29T09:55:15.352Z,24.45
2023-01-29T09:57:50.642Z,21.05
2023-01-29T10:00:44.536Z,29.05
2023-01-29T10:03:35.658Z,24.45
2023-01-29T10:06:23.376Z,24.77
2023-01-29T10:09:34.988Z,24.52
2023-01-29T10:12:53.626Z,27.73
2023-01-29T10:15:38.683Z,23.23
2023-01-29T10:18:38.200Z,24.83
2023-01-29T10:21:11.609Z,26.92
2023-01-29T10:23:46.166Z,27.17
2023-01-29T10:26:14.731Z,27.15
2023-01-29T10:28:48.464Z,21.20
2023-01-29T10:31:25.279Z,25.17
2023-01-29T10:34:03.462Z,25.23
2023-01-29T10:36:42.982Z,24.98
2023-01-29T10:39:30.971Z,25.63
2023-01-29T10:42:06.463Z,27.42
2023-01-29T10:44:53.564Z,25.80
2023-01-29T10:47:34.725Z,26.00
2023-01-29T10:50:26.564Z,24.30
2023-01-29T10:52:58.987Z,24.65
2023-01-29T10:55:41.638Z,25.83
2023-01-29T10:58:31.902Z,25.00
2023-01-29T11:00:59.656Z,27.85
2023-01-29T11:03:29.130Z,27.67
2023-01-29T11:06:04.763Z,25.67
2023-01-29T11:08:41.382Z,25.45
2023-01-29T11:11:15.511Z,27.00
2023-01-29T11:14:07.788Z,26.70
2023-01-29T11:16:49.835Z,29.60
2023-01-29T11:19:16.728Z,27.63
2023-01-29T11:21:57.874Z,29.55
2023-01-29T11:24:24.704Z,24.30
2023-01-29T11:26:59.561Z,24.90
2023-01-29T11:29:38.806Z,28.10
2023-01-29T11:32:11.993Z,31.77
2023-01-29T11:34:56.736Z,22.98
2023-01-29T11:37:23.899Z,28.15
2023-01-29T11:39:50.722Z,29.42
2023-01-29T11:42:22.238Z,29.60
2023-01-29T11:44:49.620Z,31.88
2023-01-29T11:47:16.031Z,29.77
2023-01-29T11:49:55.128Z,29.10
2023-01-29T11:52:24.669Z,28.85
2023-01-29T11:54:59.417Z,32.42
2023-01-29T11:57:30.437Z,28.35
2023-01-29T12:00:02.760Z,27.52
2023-01-29T12:02:37.048Z,30.33
2023-01-29T12:05:14.555Z,30.45
2023-01-29T12:07:42.967Z,29.85
2023-01-29T12:10:30.775Z,31.08
2023-01-29T12:13:21.783Z,23.60
2023-01-29T12:15:49.175Z,29.45
2023-01-29T12:18:15.686Z,31.65
2023-01-29T12:20:50.610Z,27.52
2023-01-29T12:23:28.322Z,30.00
2023-01-29T12:26:15.957Z,33.85
2023-01-29T12:29:20.857Z,38.03
2023-01-29T12:31:59.759Z,29.90
2023-01-29T12:34:46.416Z,34.80
2023-01-29T12:37:30.817Z,30.80
2023-01-29T12:39:57.363Z,30.48
2023-01-29T12:42:25.489Z,30.08
2023-01-29T12:44:59.552Z,28.90
2023-01-29T12:47:36.821Z,28.80
2023-01-29T12:50:27.613Z,31.45
2023-01-29T12:53:01.798Z,33.08
2023-01-29T12:55:36.979Z,34.70
2023-01-29T12:58:09.327Z,34.30
2023-01-29T13:00:40.387Z,34.53
2023-01-29T13:05:57.166Z,30.42
2023-01-29T13:08:29.379Z,32.90
2023-01-29T13:10:58.686Z,31.40
2023-01-29T13:13:32.974Z,34.20
2023-01-29T13:16:01.306Z,35.20
2023-01-29T13:18:45.244Z,34.35
2023-01-29T13:21:18.435Z,32.08
2023-01-29T13:23:51.345Z,34.53
2023-01-29T13:26:19.858Z,33.13
2023-01-29T13:28:47.559Z,36.95
2023-01-29T13:31:19.944Z,29.10
2023-01-29T13:33:55.416Z,28.52
2023-01-29T13:36:29.123Z,33.70
2023-01-29T13:39:17.100Z,31.13
2023-01-29T13:41:43.759Z,28.80
2023-01-29T13:44:39.772Z,31.08
2023-01-29T13:47:10.426Z,29.63
2023-01-29T13:49:46.346Z,35.83
2023-01-29T13:52:34.075Z,34.60
2023-01-29T13:55:05.840Z,31.42
2023-01-29T13:57:55.939Z,31.05
2023-01-29T14:00:22.696Z,30.92
2023-01-29T14:02:55.223Z,32.15
2023-01-29T14:05:31.003Z,30.67
2023-01-29T14:07:59.565Z,30.10
2023-01-29T14:10:28.813Z,30.23
2023-01-29T14:13:23.900Z,29.83
2023-01-29T14:15:59.486Z,28.17
2023-01-29T14:18:28.084Z,23.77
2023-01-29T14:21:07.148Z,27.08
2023-01-29T14:23:50.696Z,28.48
2023-01-29T14:29:03.049Z,28.98
2023-01-29T14:31:35.135Z,27.88
2023-01-29T14:34:04.979Z,28.73
2023-01-29T14:36:40.103Z,29.08
2023-01-29T14:39:07.663Z,31.23
2023-01-29T14:41:36.003Z,27.55
2023-01-29T14:44:40.420Z,27.95
2023-01-29T14:47:18.770Z,32.28
2023-01-29T14:49:49.297Z,34.57
2023-01-29T14:52:18.026Z,25.98
2023-01-29T14:54:47.909Z,30.08
2023-01-29T14:57:17.177Z,23.77
2023-01-29T14:59:49.684Z,27.50
2023-01-29T15:02:26.473Z,29.17
2023-01-29T15:04:58.175Z,28.75
2023-01-29T15:07:31.970Z,28.33
2023-01-29T15:10:21.479Z,30.55
2023-01-29T15:13:09.179Z,30.25
2023-01-29T15:15:35.716Z,28.27
2023-01-29T15:18:05.018Z,29.60
2023-01-29T15:20:37.407Z,28.80
2023-01-29T15:23:23.744Z,27.38
2023-01-29T15:25:52.861Z,26.38
2023-01-29T15:28:20.070Z,29.70
2023-01-29T15:30:54.099Z,29.05
2023-01-29T15:33:21.330Z,27.15
2023-01-29T15:35:49.851Z,29.02
2023-01-29T15:38:26.693Z,30.23
2023-01-29T15:41:01.971Z,28.05
2023-01-29T15:43:37.268Z,24.33
2023-01-29T15:46:27.062Z,28.30
2023-01-29T15:51:25.594Z,27.08
2023-01-29T15:53:56.121Z,25.40
2023-01-29T15:56:30.424Z,29.50
2023-01-29T15:59:00.770Z,27.13
2023-01-29T16:01:28.785Z,25.30
2023-01-29T16:03:59.365Z,27.67
2023-01-29T16:06:38.829Z,27.73
2023-01-29T16:09:07.327Z,28.52
2023-01-29T16:11:35.721Z,28.55
2023-01-29T16:14:03.487Z,29.00
2023-01-29T16:16:30.272Z,34.78
2023-01-29T16:19:01.386Z,29.67
2023-01-29T16:21:39.080Z,27.65
2023-01-29T16:24:11.778Z,26.58
2023-01-29T16:26:44.876Z,32.72
2023-01-29T16:29:21.763Z,29.52
2023-01-29T16:31:52.124Z,28.25
2023-01-29T16:34:35.120Z,26.50
2023-01-29T16:37:04.377Z,27.83
2023-01-29T16:39:35.750Z,25.77
2023-01-29T16:42:17.546Z,28.55
2023-01-29T16:45:05.706Z,26.27
2023-01-29T16:47:41.218Z,31.85
2023-01-29T16:50:43.399Z,27.02
2023-01-29T16:53:23.362Z,34.65
2023-01-29T16:55:52.495Z,27.25
2023-01-29T16:58:28.250Z,32.30
2023-01-29T17:01:02.169Z,29.90
2023-01-29T17:03:32.589Z,28.92
2023-01-29T17:06:08.455Z,30.33
2023-01-29T17:08:35.626Z,30.67
2023-01-29T17:11:02.883Z,36.58
2023-01-29T17:13:42.687Z,37.92
2023-01-29T17:16:29.813Z,34.70
2023-01-29T17:18:56.458Z,31.48
2023-01-29T17:21:23.691Z,31.00
2023-01-29T17:23:50.699Z,23.92
2023-01-29T17:26:17.987Z,32.15
2023-01-29T17:28:45.107Z,28.52
2023-01-29T17:31:11.952Z,30.25
2023-01-29T17:33:42.775Z,33.97
2023-01-29T17:36:13.290Z,28.45
2023-01-29T17:38:40.395Z,34.92
2023-01-29T17:41:14.174Z,34.00
2023-01-29T17:43:40.743Z,36.95
2023-01-29T17:46:13.626Z,34.20
2023-01-29T17:48:40.737Z,33.30
2023-01-29T17:51:15.119Z,33.90
2023-01-29T17:53:45.784Z,33.58
2023-01-29T17:56:28.121Z,32.85
2023-01-29T17:58:54.691Z,33.92
2023-01-29T18:01:21.435Z,37.65
2023-01-29T18:03:47.964Z,34.15
2023-01-29T18:06:27.347Z,32.45
2023-01-29T18:08:53.963Z,29.35
2023-01-29T18:11:24.136Z,29.83
2023-01-29T18:13:50.961Z,36.00
2023-01-29T18:16:18.531Z,32.83
2023-01-29T18:18:45.211Z,32.67
2023-01-29T18:21:11.769Z,33.85
2023-01-29T18:23:38.345Z,31.25
2023-01-29T18:26:05.121Z,36.03
2023-01-29T18:28:31.632Z,32.47
2023-01-29T18:30:58.211Z,32.53
2023-01-29T18:33:25.939Z,37.65
2023-01-29T18:35:55.007Z,32.55
2023-01-29T18:38:21.616Z,34.45
2023-01-29T18:40:50.099Z,34.00
2023-01-29T18:43:16.949Z,26.17
2023-01-29T18:45:43.492Z,30.27
2023-01-29T18:48:10.132Z,31.75
2023-01-29T18:50:37.909Z,36.22
2023-01-29T18:53:04.494Z,37.20
2023-01-29T18:55:31.269Z,37.22
2023-01-29T18:58:25.919Z,32.80
2023-01-29T19:00:47.214Z,32.55
2023-01-29T19:03:13.707Z,31.33
2023-01-29T19:05:40.262Z,36.15
2023-01-29T19:08:09.616Z,32.70
2023-01-29T19:10:36.423Z,30.40
2023-01-29T19:13:05.293Z,31.15
2023-01-29T19:15:32.476Z,35.40
2023-01-29T19:17:59.029Z,30.63
2023-01-29T19:20:25.553Z,32.65
2023-01-29T19:22:54.323Z,34.65
2023-01-29T19:25:21.301Z,31.88
2023-01-29T19:27:47.905Z,33.00
2023-01-29T19:30:14.720Z,30.00
2023-01-29T19:32:41.502Z,32.95
2023-01-29T19:35:08.272Z,30.02
2023-01-29T19:37:34.823Z,35.22
2023-01-29T19:40:01.380Z,34.47
2023-01-29T19:42:28.219Z,32.92
2023-01-29T19:44:54.775Z,32.35
2023-01-29T19:47:21.422Z,26.83
2023-01-29T19:49:48.014Z,33.33
2023-01-29T19:52:49.896Z,37.28
2023-01-29T19:55:17.550Z,33.40
2023-01-29T19:57:44.381Z,34.17
2023-01-29T20:00:12.209Z,33.80
2023-01-29T20:02:38.782Z,32.95
2023-01-29T20:05:07.054Z,34.03
2023-01-29T20:07:36.046Z,38.38
2023-01-29T20:10:02.746Z,38.30
2023-01-29T20:12:30.008Z,34.38
2023-01-29T20:14:56.634Z,31.25
2023-01-29T20:17:23.305Z,29.95
2023-01-29T20:19:49.763Z,37.35
2023-01-29T20:22:16.432Z,33.40
2023-01-29T20:24:42.923Z,28.63
2023-01-29T20:27:10.698Z,38.58
2023-01-29T20:29:38.614Z,35.28
2023-01-29T20:32:07.979Z,33.15
2023-01-29T20:34:35.175Z,36.40
2023-01-29T20:37:01.942Z,38.85
2023-01-29T20:39:28.624Z,34.05
2023-01-29T20:41:57.262Z,31.60
2023-01-29T20:44:24.628Z,41.47
2023-01-29T20:46:51.396Z,34.65
2023-01-29T20:49:18.406Z,34.75
2023-01-29T20:51:45.703Z,37.00
2023-01-29T20:54:14.999Z,36.97
2023-01-29T20:56:47.044Z,37.10
2023-01-29T20:59:14.298Z,39.35
2023-01-29T21:01:43.670Z,28.85
2023-01-29T21:04:10.235Z,33.22
2023-01-29T21:06:36.756Z,36.45
2023-01-29T21:09:03.738Z,36.60
2023-01-29T21:11:30.322Z,37.65
2023-01-29T21:13:57.907Z,32.63
2023-01-29T21:16:26.353Z,37.35
2023-01-29T21:19:01.987Z,36.92
2023-01-29T21:21:28.769Z,34.60
2023-01-29T21:23:55.250Z,32.67
2023-01-29T21:26:23.291Z,32.28
2023-01-29T21:28:50.045Z,31.88
2023-01-29T21:31:17.639Z,31.77
2023-01-29T21:33:44.528Z,36.10
2023-01-29T21:36:14.867Z,33.97
2023-01-29T21:38:41.418Z,35.00
2023-01-29T21:41:14.504Z,40.60
2023-01-29T21:43:41.018Z,37.20
2023-01-29T21:46:14.148Z,38.25
2023-01-29T21:48:40.779Z,39.10
2023-01-29T21:51:07.986Z,34.22
2023-01-29T21:53:34.973Z,39.38
2023-01-29T21:56:02.885Z,33.13
2023-01-29T21:58:29.982Z,35.35
2023-01-29T22:00:57.386Z,33.92
2023-01-29T22:03:46.118Z,37.38
2023-01-29T22:06:13.634Z,32.38
2023-01-29T22:08:40.130Z,37.03
2023-01-29T22:11:07.411Z,34.90
2023-01-29T22:13:34.122Z,35.70
2023-01-29T22:16:00.908Z,34.78
2023-01-29T22:18:27.764Z,35.42
2023-01-29T22:20:55.275Z,36.50
2023-01-29T22:23:22.883Z,40.53
2023-01-29T22:25:49.668Z,34.75
2023-01-29T22:28:17.069Z,35.58
2023-01-29T22:30:45.110Z,37.60
2023-01-29T22:33:12.245Z,38.13
2023-01-29T22:35:38.979Z,36.15
2023-01-29T22:38:05.510Z,38.10
2023-01-29T22:40:32.110Z,42.33
2023-01-29T22:42:58.620Z,39.90
2023-01-29T22:45:25.272Z,34.92
2023-01-29T22:47:51.727Z,38.25
2023-01-29T22:50:18.468Z,37.60
2023-01-29T22:52:54.050Z,35.50
2023-01-29T22:55:20.841Z,37.22
2023-01-29T22:57:49.520Z,39.97
2023-01-29T23:00:16.826Z,35.20
2023-01-29T23:02:43.491Z,33.67
2023-01-29T23:05:10.042Z,36.25
2023-01-29T23:07:39.450Z,35.25
2023-01-29T23:10:07.250Z,39.53
2023-01-29T23:12:37.010Z,33.22
2023-01-29T23:15:03.874Z,32.72
2023-01-29T23:17:30.477Z,28.88
2023-01-29T23:19:56.952Z,37.72
2023-01-29T23:22:23.599Z,35.72
2023-01-29T23:24:50.214Z,42.83
2023-01-29T23:27:16.808Z,33.13
2023-01-29T23:29:45.116Z,40.72
2023-01-29T23:32:16.495Z,37.97
2023-01-29T23:34:42.968Z,31.48
2023-01-29T23:37:09.812Z,32.88
2023-01-29T23:39:36.446Z,31.15
2023-01-29T23:42:03.160Z,34.42
2023-01-29T23:44:29.633Z,37.47
2023-01-29T23:46:56.263Z,30.95
2023-01-29T23:49:22.857Z,34.70
2023-01-29T23:51:51.314Z,35.95
2023-01-29T23:54:18.390Z,33.45
2023-01-29T23:56:45.190Z,37.03
2023-01-29T23:59:11.836Z,28.05
